Time;durP1;ratioP1;P1;durP2;ratioP2;P2;SDS_P1;SDS_P2;PMS_P1;PMS_P2;Temp;Humidity;BMP_temperature;BMP_pressure;BME280_temperature;BME280_humidity;BME280_pressure;Samples;Min_cycle;Max_cycle;Signal;HPM_P1;HPM_P2
2021/12/09 00:00:12;;;;;;;7.30;2.80;;;;;;;13.25;57.09;100071.94;5093890;28;20108;-61
2021/12/09 00:02:39;;;;;;;6.75;2.78;;;;;;;13.20;57.23;100068.69;5093726;28;20107;-61
2021/12/09 00:05:06;;;;;;;3.08;2.17;;;;;;;13.24;57.23;100079.84;5092757;28;20035;-62
2021/12/09 00:07:31;;;;;;;;;;;;;;;13.35;57.04;100088.09;5094247;28;20059;-60
2021/12/09 00:09:56;;;;;;;7.23;2.73;;;;;;;13.27;57.15;100082.34;5093920;28;20374;-61
2021/12/09 00:12:23;;;;;;;4.83;2.60;;;;;;;13.20;57.25;100071.28;5093552;28;20070;-61
2021/12/09 00:14:49;;;;;;;;;;;;;;;13.35;57.19;100079.41;5094054;28;20102;-60
2021/12/09 00:17:14;;;;;;;4.80;2.50;;;;;;;13.24;57.07;100075.47;5093689;28;20011;-61
2021/12/09 00:19:40;;;;;;;4.03;2.43;;;;;;;13.24;57.11;100074.63;5093867;28;20070;-61
2021/12/09 00:22:09;;;;;;;5.63;2.70;;;;;;;13.20;57.19;100071.28;5093468;28;20032;-60
2021/12/09 00:24:35;;;;;;;5.57;2.67;;;;;;;13.22;57.29;100082.50;5093396;28;20107;-61
2021/12/09 00:27:00;;;;;;;4.90;2.50;;;;;;;13.13;57.31;100068.06;5093311;28;20104;-61
2021/12/09 00:29:26;;;;;;;7.10;2.50;;;;;;;13.18;57.16;100082.66;5093535;28;20044;-61
2021/12/09 00:31:51;;;;;;;5.73;2.50;;;;;;;13.18;57.20;100074.84;5093299;28;20032;-61
2021/12/09 00:34:30;;;;;;;5.87;2.50;;;;;;;13.23;57.50;100078.13;5093375;28;20083;-61
2021/12/09 00:37:00;;;;;;;5.03;2.60;;;;;;;13.22;57.16;100079.91;5093537;28;20024;-61
2021/12/09 00:39:26;;;;;;;5.13;2.35;;;;;;;13.20;57.19;100073.91;5093481;28;20470;-60
2021/12/09 00:41:51;;;;;;;5.13;2.40;;;;;;;13.17;57.34;100074.00;5091905;28;20379;-61
2021/12/09 00:44:17;;;;;;;4.87;2.40;;;;;;;13.21;57.24;100077.34;5093017;28;20085;-61
2021/12/09 00:46:42;;;;;;;5.87;2.50;;;;;;;13.21;57.13;100085.16;5093290;28;20449;-61
2021/12/09 00:49:08;;;;;;;5.50;2.50;;;;;;;13.19;57.26;100079.16;5093149;28;20397;-61
2021/12/09 00:51:34;;;;;;;3.70;2.47;;;;;;;13.18;57.31;100083.53;5083538;28;20175;-61
2021/12/09 00:54:00;;;;;;;9.90;2.83;;;;;;;13.20;56.84;100089.53;5091582;28;20032;-61
2021/12/09 00:56:25;;;;;;;4.97;2.33;;;;;;;13.18;56.79;100077.44;5084681;28;20085;-61
2021/12/09 00:58:51;;;;;;;7.13;2.60;;;;;;;13.21;57.08;100085.16;5079586;28;20040;-60
2021/12/09 01:01:17;;;;;;;6.68;2.75;;;;;;;13.21;56.96;100085.16;5079590;28;20020;-61
2021/12/09 01:03:43;;;;;;;6.27;2.67;;;;;;;13.18;57.14;100085.28;5081011;28;20572;-61
2021/12/09 01:06:10;;;;;;;5.10;2.40;;;;;;;13.20;57.21;100088.66;5080628;28;20035;-61
2021/12/09 01:08:35;;;;;;;5.97;2.50;;;;;;;13.16;57.03;100082.72;5080232;28;20059;-61
2021/12/09 01:11:02;;;;;;;6.30;2.57;;;;;;;13.18;57.08;100091.34;5080785;28;20527;-62
2021/12/09 01:13:28;;;;;;;6.00;2.50;;;;;;;13.17;57.40;100087.03;5082633;28;20028;-61
2021/12/09 01:15:53;;;;;;;4.78;2.50;;;;;;;13.18;57.19;100091.34;5080633;28;20044;-60
2021/12/09 01:18:19;;;;;;;5.20;2.40;;;;;;;13.18;57.28;100098.28;5086413;28;20414;-62
2021/12/09 01:20:44;;;;;;;7.57;2.63;;;;;;;13.12;57.21;100094.16;5086598;28;20059;-61
2021/12/09 01:23:10;;;;;;;2.97;2.17;;;;;;;13.12;57.47;100095.03;5084743;28;20024;-61
2021/12/09 01:25:38;;;;;;;5.33;2.83;;;;;;;13.16;57.32;100107.94;5086152;28;20034;-60
2021/12/09 01:28:12;;;;;;;4.63;2.47;;;;;;;13.13;57.40;100108.91;5086054;28;20470;-61
2021/12/09 01:30:37;;;;;;;6.07;2.47;;;;;;;13.10;57.04;100091.63;5085812;28;20108;-62
2021/12/09 01:33:03;;;;;;;4.20;2.47;;;;;;;13.14;57.28;100108.00;5085466;28;20020;-62
2021/12/09 01:35:35;;;;;;;5.03;2.57;;;;;;;13.10;57.34;100103.81;5086664;28;20047;-59
2021/12/09 01:38:09;;;;;;;4.05;2.40;;;;;;;13.12;57.41;100113.28;5085486;28;20016;-61
2021/12/09 01:40:36;;;;;;;5.18;2.47;;;;;;;13.07;57.36;100102.16;5087207;28;20021;-61
2021/12/09 01:43:02;;;;;;;6.75;2.47;;;;;;;13.12;57.40;100107.19;5084765;28;20024;-61
2021/12/09 01:45:28;;;;;;;4.70;2.40;;;;;;;13.12;57.24;100104.59;5085284;28;21451;-61
2021/12/09 01:47:54;;;;;;;5.90;2.90;;;;;;;13.11;57.26;100106.34;5084397;28;20028;-62
2021/12/09 01:50:20;;;;;;;4.93;2.70;;;;;;;13.12;57.28;100109.78;5080465;28;20708;-59
2021/12/09 01:52:46;;;;;;;4.00;2.40;;;;;;;13.09;57.37;100092.53;5076301;28;20036;-60
2021/12/09 01:55:13;;;;;;;4.87;2.37;;;;;;;13.05;57.17;100096.19;5074235;28;20032;-61
2021/12/09 01:57:39;;;;;;;4.57;2.67;;;;;;;13.11;57.41;100108.97;5075601;28;20024;-60
2021/12/09 02:00:08;;;;;;;3.73;2.40;;;;;;;13.12;57.33;100099.38;5074523;28;20035;-61
2021/12/09 02:02:33;;;;;;;3.78;2.35;;;;;;;13.11;57.51;100101.16;5075572;28;20036;-61
2021/12/09 02:04:58;;;;;;;3.13;2.30;;;;;;;13.11;57.24;100098.53;5075341;28;20035;-61
2021/12/09 02:07:24;;;;;;;5.00;2.50;;;;;;;13.11;57.36;100095.94;5075630;28;20398;-61
2021/12/09 02:09:49;;;;;;;4.13;2.30;;;;;;;13.08;57.36;100087.41;5075921;28;20028;-60
2021/12/09 02:12:15;;;;;;;4.47;2.40;;;;;;;13.06;57.37;100091.81;5076283;28;20466;-61
2021/12/09 02:14:43;;;;;;;6.43;2.57;;;;;;;13.07;57.43;100091.75;5076042;28;20518;-61
2021/12/09 02:17:10;;;;;;;4.38;2.40;;;;;;;13.07;57.62;100086.53;5075935;28;20378;-61
2021/12/09 02:19:39;;;;;;;5.07;2.40;;;;;;;13.06;57.46;100084.81;5075909;28;20103;-61
2021/12/09 02:22:05;;;;;;;4.63;2.50;;;;;;;13.02;57.40;100083.25;5075303;28;20078;-61
2021/12/09 02:24:30;;;;;;;5.47;2.30;;;;;;;13.05;57.45;100085.75;5075601;28;20033;-61
2021/12/09 02:26:56;;;;;;;3.97;2.33;;;;;;;13.03;57.51;100079.75;5075644;28;20582;-61
2021/12/09 02:29:21;;;;;;;4.93;2.40;;;;;;;13.08;57.47;100084.78;5074706;28;20032;-61
2021/12/09 02:31:47;;;;;;;5.17;2.40;;;;;;;13.04;57.46;100077.97;5075731;28;20021;-61
2021/12/09 02:34:12;;;;;;;6.40;2.57;;;;;;;13.06;57.38;100079.63;5075388;28;20029;-61
2021/12/09 02:36:41;;;;;;;4.10;2.40;;;;;;;13.03;57.53;100081.50;5075351;28;20397;-61
2021/12/09 02:39:09;;;;;;;4.13;2.40;;;;;;;13.04;57.82;100089.28;5075302;28;20039;-62
2021/12/09 02:41:36;;;;;;;4.47;2.33;;;;;;;13.02;57.55;100071.97;5075640;28;20145;-61
2021/12/09 02:44:10;;;;;;;4.90;2.33;;;;;;;13.01;57.57;100080.69;5075428;28;20439;-60
2021/12/09 02:46:38;;;;;;;5.30;2.40;;;;;;;13.06;57.57;100089.19;5075578;28;20029;-61
2021/12/09 02:49:16;;;;;;;4.47;2.33;;;;;;;13.07;57.70;100085.69;5074501;28;20071;-61
2021/12/09 02:51:44;;;;;;;5.43;2.40;;;;;;;13.02;57.11;100082.41;5075112;28;20025;-61
2021/12/09 02:54:14;;;;;;;5.35;2.60;;;;;;;13.00;57.44;100086.84;5075078;28;20115;-62
2021/12/09 02:56:40;;;;;;;5.72;2.40;;;;;;;13.03;57.58;100095.38;5075054;28;20032;-61
2021/12/09 02:59:08;;;;;;;5.07;2.40;;;;;;;13.05;57.32;100090.09;5075243;28;20040;-61
2021/12/09 03:01:37;;;;;;;4.03;2.28;;;;;;;13.03;57.40;100103.19;5075028;28;20033;-61
2021/12/09 03:04:05;;;;;;;3.47;2.10;;;;;;;13.00;57.28;100099.88;5074796;28;20050;-62
2021/12/09 03:06:37;;;;;;;5.60;2.42;;;;;;;12.99;57.44;100091.19;5074895;28;20059;-61
2021/12/09 03:09:07;;;;;;;3.75;2.30;;;;;;;13.02;57.37;100096.28;5074698;28;20042;-61
2021/12/09 03:11:32;;;;;;;5.03;2.30;;;;;;;13.03;57.45;100104.94;5075200;28;20085;-61
2021/12/09 03:13:59;;;;;;;4.37;2.30;;;;;;;12.98;57.42;100099.91;5074771;28;20111;-62
2021/12/09 03:16:25;;;;;;;4.03;2.28;;;;;;;13.02;57.58;100108.44;5074233;28;20032;-60
2021/12/09 03:18:56;;;;;;;3.70;2.25;;;;;;;13.02;57.45;100118.88;5074756;28;20043;-61
2021/12/09 03:21:28;;;;;;;6.28;2.42;;;;;;;13.01;57.44;100125.84;5074982;28;20367;-61
2021/12/09 03:23:55;;;;;;;5.00;2.38;;;;;;;12.95;57.39;100113.91;5074620;28;20044;-62
2021/12/09 03:26:25;;;;;;;;;;;;;;;13.10;57.37;100128.09;5075135;28;20040;-62
2021/12/09 03:28:52;;;;;;;5.50;2.42;;;;;;;13.03;57.41;100128.38;5074394;28;19919;-61
2021/12/09 03:31:17;;;;;;;4.63;2.30;;;;;;;13.01;57.40;100132.78;5074224;28;20086;-61
2021/12/09 03:33:43;;;;;;;3.50;2.47;;;;;;;12.97;57.44;100122.50;5074431;28;20040;-61
2021/12/09 03:36:08;;;;;;;5.13;2.40;;;;;;;13.01;57.57;100130.19;5074451;28;20024;-61
2021/12/09 03:38:35;;;;;;;4.57;2.47;;;;;;;12.95;57.51;100121.72;5074503;28;20052;-61
2021/12/09 03:41:00;;;;;;;4.03;2.33;;;;;;;12.98;57.46;100125.94;5073593;28;20387;-61
2021/12/09 03:43:26;;;;;;;5.73;2.40;;;;;;;12.95;57.53;100116.50;5073899;28;20036;-61
2021/12/09 03:45:55;;;;;;;3.17;2.20;;;;;;;12.97;57.48;100139.88;5073991;28;20033;-62
2021/12/09 03:48:22;;;;;;;3.33;2.08;;;;;;;12.96;57.57;100139.03;5073823;28;20032;-62
2021/12/09 03:50:48;;;;;;;4.63;2.20;;;;;;;12.94;57.68;100135.63;5073699;28;20136;-61
2021/12/09 03:53:13;;;;;;;4.23;2.30;;;;;;;12.94;57.50;100138.25;5073986;28;20103;-60
2021/12/09 03:55:39;;;;;;;4.63;2.40;;;;;;;12.98;57.47;100150.25;5074140;28;20052;-61
2021/12/09 03:58:06;;;;;;;5.53;2.35;;;;;;;12.98;57.54;100150.25;5073442;28;20078;-61
2021/12/09 04:00:31;;;;;;;4.80;2.22;;;;;;;12.90;57.58;100136.63;5073684;28;20047;-60
2021/12/09 04:02:57;;;;;;;5.10;2.30;;;;;;;12.96;57.72;100141.66;5072639;28;20032;-62
2021/12/09 04:05:23;;;;;;;4.03;2.17;;;;;;;12.94;57.56;100140.00;5073793;28;20443;-61
2021/12/09 04:07:48;;;;;;;5.83;2.40;;;;;;;12.92;57.62;100131.41;5073940;28;20029;-62
2021/12/09 04:10:14;;;;;;;4.83;2.47;;;;;;;12.92;57.76;100131.41;5073423;28;20539;-62
2021/12/09 04:12:39;;;;;;;4.63;2.40;;;;;;;12.88;57.51;100129.81;5073530;28;20466;-61
2021/12/09 04:15:05;;;;;;;6.47;2.30;;;;;;;12.95;57.52;100134.72;5073180;28;20025;-62
2021/12/09 04:17:31;;;;;;;3.83;2.22;;;;;;;12.92;57.60;100121.81;5073314;28;20535;-62
2021/12/09 04:19:56;;;;;;;4.17;2.30;;;;;;;12.92;57.60;100124.41;5073384;28;20119;-62
2021/12/09 04:22:22;;;;;;;4.23;2.30;;;;;;;12.90;57.43;100134.03;5072178;28;20036;-62
2021/12/09 04:24:50;;;;;;;3.87;2.07;;;;;;;12.90;57.51;100141.00;5073611;28;20043;-61
2021/12/09 04:27:15;;;;;;;5.85;2.33;;;;;;;12.88;57.81;100142.81;5071831;28;20029;-61
2021/12/09 04:29:41;;;;;;;2.97;2.20;;;;;;;12.83;57.45;100123.00;5072997;28;20359;-62
2021/12/09 04:32:07;;;;;;;4.93;2.10;;;;;;;12.92;57.39;100147.84;5073139;28;20428;-61
2021/12/09 04:34:32;;;;;;;4.43;2.10;;;;;;;12.91;57.57;100147.94;5073285;28;20036;-62
2021/12/09 04:36:59;;;;;;;3.20;2.37;;;;;;;12.90;57.56;100146.22;5073291;28;20270;-62
2021/12/09 04:39:24;;;;;;;3.35;1.98;;;;;;;12.88;57.57;100142.81;5073534;28;20024;-62
2021/12/09 04:41:50;;;;;;;4.07;2.20;;;;;;;12.91;57.44;100153.13;5073126;28;20035;-62
2021/12/09 04:44:16;;;;;;;5.57;2.30;;;;;;;12.88;57.35;100150.63;5072800;28;20036;-61
2021/12/09 04:46:41;;;;;;;3.40;2.10;;;;;;;12.87;57.62;100147.19;5072828;28;20394;-62
2021/12/09 04:49:07;;;;;;;3.50;2.00;;;;;;;12.91;57.49;100153.97;5072939;28;20076;-61
2021/12/09 04:51:34;;;;;;;4.23;2.20;;;;;;;12.86;57.53;100149.84;5072603;28;20029;-61
2021/12/09 04:54:00;;;;;;;4.45;2.20;;;;;;;12.86;57.54;100147.22;5072710;28;20502;-61
2021/12/09 04:56:25;;;;;;;5.18;2.38;;;;;;;12.90;57.55;100151.44;5073389;28;20060;-62
2021/12/09 04:58:51;;;;;;;3.30;1.93;;;;;;;12.77;57.61;100138.84;5072208;28;20047;-61
2021/12/09 05:01:18;;;;;;;3.25;2.03;;;;;;;12.89;57.62;100154.94;5072841;28;20029;-62
2021/12/09 05:03:47;;;;;;;4.18;2.08;;;;;;;12.86;57.40;100145.50;5073088;28;20488;-62
2021/12/09 05:06:12;;;;;;;3.85;2.10;;;;;;;12.86;57.62;100142.03;5072509;28;20438;-62
2021/12/09 05:08:44;;;;;;;4.93;2.23;;;;;;;12.87;57.53;100152.41;5072938;28;20050;-62
2021/12/09 05:11:27;;;;;;;4.13;2.00;;;;;;;12.86;57.62;100152.44;5072992;28;20059;-61
2021/12/09 05:13:52;;;;;;;4.20;2.03;;;;;;;12.81;57.70;100148.25;5072788;28;20029;-61
2021/12/09 05:16:17;;;;;;;4.83;2.17;;;;;;;12.86;57.47;100155.91;5072840;28;20040;-62
2021/12/09 05:18:44;;;;;;;3.87;2.20;;;;;;;12.85;57.50;100158.53;5072984;28;20043;-62
2021/12/09 05:21:12;;;;;;;4.10;2.25;;;;;;;12.84;57.62;100160.31;5071625;28;20078;-62
2021/12/09 05:23:38;;;;;;;4.75;2.20;;;;;;;12.83;57.48;100159.44;5072555;28;20039;-62
2021/12/09 05:26:04;;;;;;;4.22;2.20;;;;;;;12.83;57.77;100161.22;5071856;28;20077;-62
2021/12/09 05:28:33;;;;;;;4.40;2.13;;;;;;;12.83;57.62;100164.66;5072143;28;20467;-62
2021/12/09 05:33:45;;;;;;;2.90;2.00;;;;;;;12.83;57.58;100159.44;5072817;28;20101;-61
2021/12/09 05:36:10;;;;;;;4.22;2.08;;;;;;;12.83;57.56;100167.25;5071120;28;20025;-61
2021/12/09 05:38:36;;;;;;;2.90;2.00;;;;;;;12.75;57.61;100150.22;5070746;28;20031;-62
2021/12/09 05:41:02;;;;;;;4.40;2.17;;;;;;;12.80;57.38;100158.72;5059336;28;20645;-61
2021/12/09 05:43:27;;;;;;;3.77;2.10;;;;;;;12.80;57.70;100162.19;5086893;28;20459;-61
2021/12/09 05:45:53;;;;;;;3.83;2.13;;;;;;;12.82;57.66;100169.94;5092912;28;20480;-62
2021/12/09 05:48:18;;;;;;;4.20;2.10;;;;;;;12.80;57.51;100176.94;5092818;28;20025;-62
2021/12/09 05:50:44;;;;;;;5.83;2.40;;;;;;;12.80;57.30;100180.41;5092380;28;20052;-61
2021/12/09 05:53:10;;;;;;;3.75;2.30;;;;;;;12.77;57.40;100170.09;5091939;28;20043;-59
2021/12/09 05:55:36;;;;;;;7.37;2.63;;;;;;;12.80;57.38;100183.00;5092572;28;20036;-61
2021/12/09 05:58:02;;;;;;;5.70;2.25;;;;;;;12.79;57.33;100183.91;5091520;28;20032;-61
2021/12/09 06:00:28;;;;;;;4.03;2.00;;;;;;;12.75;57.39;100179.72;5075033;28;20097;-62
2021/12/09 06:02:53;;;;;;;5.07;2.10;;;;;;;12.75;57.16;100176.28;5073547;28;20021;-62
2021/12/09 06:05:19;;;;;;;3.77;2.23;;;;;;;12.76;56.98;100184.00;5075897;28;20036;-62
2021/12/09 06:07:46;;;;;;;4.23;2.33;;;;;;;12.76;56.95;100184.00;5075736;28;20052;-61
2021/12/09 06:10:12;;;;;;;3.83;2.10;;;;;;;12.76;57.16;100188.38;5075921;28;20529;-61
2021/12/09 06:12:38;;;;;;;2.67;2.20;;;;;;;12.75;56.97;100177.09;5077261;28;20115;-62
2021/12/09 06:15:04;;;;;;;5.60;2.30;;;;;;;12.74;56.97;100187.59;5085411;28;20016;-62
2021/12/09 06:17:30;;;;;;;;;;;;;;;12.85;56.86;100181.97;5094495;28;20401;-61
2021/12/09 06:19:55;;;;;;;4.60;2.30;;;;;;;12.75;56.74;100184.91;5096214;28;20006;-62
2021/12/09 06:22:20;;;;;;;11.90;2.53;;;;;;;12.65;55.51;100167.91;5091168;28;20056;-61
2021/12/09 06:24:46;;;;;;;9.53;2.77;;;;;;;12.63;54.47;100180.13;5075724;28;20040;-62
2021/12/09 06:27:13;;;;;;;10.57;2.60;;;;;;;12.46;54.09;100178.97;5075399;28;20033;-61
2021/12/09 06:29:39;;;;;;;9.48;2.83;;;;;;;12.39;53.98;100174.84;5080545;28;20038;-62
2021/12/09 06:32:05;;;;;;;10.95;2.72;;;;;;;12.36;54.99;100180.19;5084656;28;20074;-61
2021/12/09 06:34:31;;;;;;;8.25;2.60;;;;;;;12.34;54.48;100166.38;5078755;28;20035;-61
2021/12/09 06:36:56;;;;;;;11.73;2.90;;;;;;;12.33;54.02;100175.06;5084614;28;20398;-62
2021/12/09 06:39:22;;;;;;;9.73;3.00;;;;;;;12.33;53.94;100180.28;5084725;28;20090;-61
2021/12/09 06:41:48;;;;;;;10.50;3.37;;;;;;;12.30;53.63;100183.84;5080234;28;20032;-61
2021/12/09 06:44:13;;;;;;;7.07;2.85;;;;;;;12.29;53.94;100186.47;5095358;28;20020;-61
2021/12/09 06:46:39;;;;;;;10.77;3.10;;;;;;;12.25;54.04;100190.09;5094950;28;20527;-62
2021/12/09 06:49:05;;;;;;;9.80;2.93;;;;;;;12.32;54.63;100200.25;5095438;28;20098;-62
2021/12/09 06:51:31;;;;;;;8.93;2.88;;;;;;;12.35;54.52;100205.34;5095523;28;20032;-60
2021/12/09 06:53:56;;;;;;;8.07;2.75;;;;;;;12.36;54.75;100207.03;5094629;28;20044;-61
2021/12/09 06:56:23;;;;;;;8.20;2.87;;;;;;;12.34;54.81;100198.44;5095233;28;20040;-62
2021/12/09 06:58:49;;;;;;;8.07;2.60;;;;;;;12.40;54.66;100202.59;5094756;28;20278;-61
2021/12/09 07:01:14;;;;;;;12.67;2.60;;;;;;;12.41;54.81;100206.06;5093998;28;20024;-61
2021/12/09 07:03:40;;;;;;;9.63;2.87;;;;;;;12.33;54.92;100183.72;5094406;28;20389;-62
2021/12/09 07:06:08;;;;;;;5.30;2.70;;;;;;;12.40;54.64;100206.94;5093628;28;20107;-61
2021/12/09 07:08:38;;;;;;;6.93;2.55;;;;;;;12.40;54.64;100204.34;5094424;28;20035;-61
2021/12/09 07:11:04;;;;;;;8.48;2.95;;;;;;;12.40;54.44;100206.94;5094686;28;20036;-62
2021/12/09 07:13:30;;;;;;;6.75;2.70;;;;;;;12.39;54.54;100206.09;5095234;28;20116;-62
2021/12/09 07:15:57;;;;;;;10.38;3.10;;;;;;;12.27;54.61;100196.09;5094439;28;20036;-62
2021/12/09 07:18:25;;;;;;;8.93;2.97;;;;;;;12.34;54.44;100200.19;5095141;28;20056;-62
2021/12/09 07:20:51;;;;;;;7.28;2.83;;;;;;;12.36;54.30;100199.22;5094653;28;20093;-61
2021/12/09 07:23:17;;;;;;;;;;;;;;;12.49;54.67;100201.44;5095183;28;20031;-62
2021/12/09 07:25:42;;;;;;;8.40;2.50;;;;;;;12.40;54.30;100199.97;5094500;28;19916;-62
2021/12/09 07:28:07;;;;;;;6.53;2.50;;;;;;;12.40;54.36;100213.00;5094878;28;20034;-61
2021/12/09 07:30:33;;;;;;;7.83;2.63;;;;;;;12.33;54.47;100201.94;5094811;28;20039;-62
2021/12/09 07:32:58;;;;;;;11.67;2.80;;;;;;;12.35;54.43;100204.50;5094825;28;20028;-62
2021/12/09 07:35:30;;;;;;;9.33;2.77;;;;;;;12.41;54.50;100214.69;5095046;28;20064;-62
2021/12/09 07:37:55;;;;;;;8.07;2.55;;;;;;;12.41;54.64;100216.47;5094457;28;20507;-62
2021/12/09 07:40:21;;;;;;;6.03;2.47;;;;;;;12.37;54.42;100220.91;5094301;28;20028;-61
2021/12/09 07:42:46;;;;;;;6.70;2.50;;;;;;;12.39;54.32;100231.28;5094343;28;20032;-62
2021/12/09 07:45:13;;;;;;;8.67;2.60;;;;;;;12.38;54.36;100221.75;5094366;28;20123;-61
2021/12/09 07:47:39;;;;;;;9.73;3.08;;;;;;;12.37;54.40;100233.94;5094221;28;20028;-61
2021/12/09 07:50:07;;;;;;;7.18;2.70;;;;;;;12.34;54.20;100213.19;5094205;28;20080;-61
2021/12/09 07:52:33;;;;;;;7.55;2.75;;;;;;;12.35;54.33;100225.31;5094139;28;20055;-62
2021/12/09 07:54:58;;;;;;;6.10;2.80;;;;;;;12.35;54.64;100209.69;5094113;28;20055;-62
2021/12/09 07:57:24;;;;;;;8.30;2.80;;;;;;;12.31;54.31;100210.69;5094092;28;20036;-62
2021/12/09 07:59:49;;;;;;;8.57;3.00;;;;;;;12.31;53.75;100211.56;5094020;28;20462;-62
2021/12/09 08:02:16;;;;;;;7.73;2.77;;;;;;;12.35;53.90;100214.91;5093647;28;20107;-62
2021/12/09 08:04:41;;;;;;;8.13;2.70;;;;;;;12.35;53.96;100217.50;5093047;28;20063;-60
2021/12/09 08:07:07;;;;;;;8.90;2.80;;;;;;;12.33;54.03;100233.16;5094045;28;20115;-62
2021/12/09 08:09:33;;;;;;;6.30;2.70;;;;;;;12.32;54.11;100235.81;5093731;28;20134;-62
2021/12/09 08:11:59;;;;;;;7.75;2.78;;;;;;;12.33;54.09;100240.97;5093543;28;20020;-61
2021/12/09 08:14:24;;;;;;;6.63;2.60;;;;;;;12.34;54.00;100239.22;5094113;28;20051;-62
2021/12/09 08:17:08;;;;;;;9.63;2.80;;;;;;;12.32;54.20;100241.03;5093536;28;20028;-62
2021/12/09 08:19:34;;;;;;;7.85;2.67;;;;;;;12.34;54.24;100250.47;5093657;28;20481;-62
2021/12/09 08:21:59;;;;;;;5.57;2.40;;;;;;;12.35;53.88;100246.13;5093731;28;20120;-59
2021/12/09 08:24:24;;;;;;;6.63;2.50;;;;;;;12.34;53.81;100240.06;5093642;28;20054;-62
2021/12/09 08:26:50;;;;;;;7.43;2.80;;;;;;;12.34;53.72;100247.88;5092708;28;20076;-64
2021/12/09 08:29:15;;;;;;;8.73;2.93;;;;;;;12.34;53.91;100236.63;5087493;28;20067;-62
2021/12/09 08:31:40;;;;;;;6.93;3.00;;;;;;;12.25;53.73;100229.13;5093396;28;20027;-62
2021/12/09 08:34:06;;;;;;;6.90;2.80;;;;;;;12.33;53.76;100234.91;5093273;28;20029;-61
2021/12/09 08:36:32;;;;;;;5.70;2.67;;;;;;;12.33;54.02;100227.13;5090584;28;20054;-61
2021/12/09 08:38:58;;;;;;;;;;;;;;;12.44;54.28;100239.78;5084389;28;20021;-61
2021/12/09 08:41:24;;;;;;;7.20;2.90;;;;;;;12.36;53.87;100230.47;5080841;28;20278;-62
2021/12/09 08:43:49;;;;;;;5.72;2.63;;;;;;;12.32;53.97;100233.22;5082518;28;20031;-62
2021/12/09 08:46:17;;;;;;;11.53;2.93;;;;;;;12.29;53.88;100226.38;5083890;28;20032;-62
2021/12/09 08:48:42;;;;;;;7.97;2.92;;;;;;;12.28;53.80;100240.28;5081827;28;20036;-61
2021/12/09 08:51:08;;;;;;;6.37;2.50;;;;;;;12.28;53.76;100232.47;5082829;28;20055;-62
2021/12/09 08:53:34;;;;;;;10.17;2.87;;;;;;;12.30;53.78;100243.69;5083105;28;20028;-62
2021/12/09 08:55:59;;;;;;;8.70;2.80;;;;;;;12.30;53.63;100248.88;5081326;28;20028;-62
2021/12/09 08:58:27;;;;;;;7.73;2.83;;;;;;;12.26;53.79;100238.63;5083292;28;20030;-61
2021/12/09 09:00:54;;;;;;;5.50;2.80;;;;;;;12.29;53.62;100249.78;5083447;28;20111;-62
2021/12/09 09:03:19;;;;;;;6.93;2.90;;;;;;;12.26;53.75;100241.22;5081433;28;20116;-62
2021/12/09 09:05:45;;;;;;;6.40;2.70;;;;;;;12.26;53.62;100239.47;5084192;28;20502;-61
2021/12/09 09:08:10;;;;;;;8.83;2.83;;;;;;;12.30;53.46;100248.03;5093040;28;20556;-61
2021/12/09 09:10:39;;;;;;;7.17;2.70;;;;;;;12.24;53.49;100243.88;5092935;28;20063;-60
2021/12/09 09:13:05;;;;;;;7.15;2.88;;;;;;;12.22;53.44;100237.00;5093170;28;20103;-60
2021/12/09 09:15:31;;;;;;;9.70;2.90;;;;;;;12.27;53.31;100248.13;5092899;28;20111;-61
2021/12/09 09:17:58;;;;;;;10.85;2.97;;;;;;;12.29;53.57;100251.53;5092762;28;20028;-60
2021/12/09 09:20:26;;;;;;;11.50;2.85;;;;;;;12.26;53.73;100242.06;5092850;28;20032;-59
2021/12/09 09:22:52;;;;;;;13.38;3.28;;;;;;;12.31;53.71;100253.19;5092863;28;20425;-61
2021/12/09 09:25:22;;;;;;;11.85;3.13;;;;;;;12.29;53.72;100248.91;5089358;28;20044;-61
2021/12/09 09:27:48;;;;;;;10.65;3.08;;;;;;;12.33;53.83;100264.38;5072375;28;20429;-61
2021/12/09 09:30:18;;;;;;;6.93;2.58;;;;;;;12.35;53.97;100262.59;5072753;28;20041;-60
2021/12/09 09:32:49;;;;;;;9.98;2.85;;;;;;;12.38;54.23;100255.59;5072143;28;20111;-60
2021/12/09 09:35:15;;;;;;;12.07;2.95;;;;;;;12.34;54.10;100258.28;5072698;28;20473;-61
2021/12/09 09:37:40;;;;;;;8.30;2.85;;;;;;;12.42;54.15;100257.19;5073962;28;20033;-58
2021/12/09 09:40:10;;;;;;;9.63;2.60;;;;;;;12.41;54.19;100264.13;5074975;28;20083;-61
2021/12/09 09:45:12;;;;;;;8.75;2.67;;;;;;;12.39;54.55;100258.13;5086320;28;20115;-60
2021/12/09 09:47:37;;;;;;;10.10;2.90;;;;;;;12.38;54.55;100261.66;5085444;28;20028;-59
2021/12/09 09:50:06;;;;;;;5.73;2.23;;;;;;;12.46;54.49;100274.41;5085462;28;20044;-60
2021/12/09 09:52:32;;;;;;;6.57;2.53;;;;;;;12.43;54.35;100261.50;5087453;28;20031;-60
2021/12/09 09:55:00;;;;;;;7.28;2.60;;;;;;;12.47;54.68;100271.75;5088802;28;20025;-60
2021/12/09 09:57:26;;;;;;;7.63;2.40;;;;;;;12.50;55.08;100274.25;5096732;28;20028;-61
2021/12/09 09:59:52;;;;;;;11.70;2.40;;;;;;;12.51;55.23;100278.56;5096385;28;20035;-61
2021/12/09 10:02:17;;;;;;;8.80;2.60;;;;;;;12.51;55.24;100272.50;5087658;28;20024;-59
2021/12/09 10:04:59;;;;;;;7.63;2.53;;;;;;;12.57;55.53;100281.88;5084023;28;20036;-61
2021/12/09 10:07:25;;;;;;;9.25;2.70;;;;;;;12.57;55.50;100274.91;5091133;28;20051;-61
2021/12/09 10:09:52;;;;;;;6.80;2.50;;;;;;;12.59;55.32;100277.47;5094559;28;20126;-61
2021/12/09 10:12:17;;;;;;;7.03;2.65;;;;;;;12.57;55.69;100268.84;5073560;28;20029;-60
2021/12/09 10:14:50;;;;;;;5.77;2.60;;;;;;;12.62;55.54;100272.13;5074832;28;20482;-60
2021/12/09 10:17:18;;;;;;;5.28;2.25;;;;;;;12.58;55.78;100260.16;5075065;28;20028;-61
2021/12/09 10:19:46;;;;;;;8.80;2.40;;;;;;;12.63;55.75;100266.91;5086357;28;20024;-60
2021/12/09 10:22:24;;;;;;;5.97;2.35;;;;;;;12.62;55.71;100254.78;5094069;28;20082;-61
2021/12/09 10:24:53;;;;;;;6.28;2.10;;;;;;;12.65;55.88;100253.81;5094780;28;20118;-60
2021/12/09 10:27:29;;;;;;;7.53;2.30;;;;;;;12.67;55.67;100252.88;5094703;28;20020;-61
2021/12/09 10:30:01;;;;;;;7.15;2.25;;;;;;;12.65;55.61;100233.00;5094647;28;20039;-60
2021/12/09 10:32:31;;;;;;;7.53;2.45;;;;;;;12.73;55.88;100241.38;5095148;28;20096;-61
2021/12/09 10:35:10;;;;;;;6.18;2.53;;;;;;;12.75;55.83;100243.97;5094972;28;20047;-61
2021/12/09 10:37:38;;;;;;;5.78;2.20;;;;;;;12.73;55.69;100236.19;5076137;28;20036;-60
2021/12/09 10:40:06;;;;;;;7.60;2.20;;;;;;;12.78;55.86;100242.09;5074391;28;20048;-61
2021/12/09 10:42:32;;;;;;;5.75;2.35;;;;;;;12.78;55.97;100246.44;5074347;28;20030;-61
2021/12/09 10:45:04;;;;;;;;;;;;;;;12.88;55.73;100247.84;5075078;28;20033;-61
2021/12/09 10:50:18;;;;;;;5.03;2.30;;;;;;;12.79;55.75;100246.41;5073257;28;20062;-61
2021/12/09 10:52:49;;;;;;;7.43;2.35;;;;;;;12.78;55.83;100249.91;5074287;28;20115;-60
2021/12/09 10:55:20;;;;;;;7.18;2.20;;;;;;;12.79;55.90;100249.00;5073803;28;20455;-61
2021/12/09 10:58:04;;;;;;;4.35;2.33;;;;;;;12.82;56.00;100256.72;5074380;28;20028;-60
2021/12/09 11:00:46;;;;;;;3.72;2.13;;;;;;;12.85;55.89;100249.69;5074135;28;20032;-58
2021/12/09 11:03:25;;;;;;;6.43;2.17;;;;;;;12.83;55.79;100253.19;5073668;28;20386;-61
2021/12/09 11:05:58;;;;;;;5.85;2.15;;;;;;;12.83;55.83;100250.59;5074075;28;20398;-60
2021/12/09 11:08:32;;;;;;;5.45;2.30;;;;;;;12.83;56.00;100245.38;5074465;28;20036;-61
2021/12/09 11:11:27;;;;;;;4.43;2.10;;;;;;;12.87;56.03;100250.50;5085603;28;20063;-60
2021/12/09 11:13:57;;;;;;;5.28;2.20;;;;;;;12.82;55.88;100246.31;5085516;28;20467;-61
2021/12/09 11:16:24;;;;;;;4.70;2.10;;;;;;;12.76;56.10;100233.50;5083934;28;20378;-60
2021/12/09 11:18:56;;;;;;;4.93;2.15;;;;;;;12.86;55.96;100238.38;5079100;28;20037;-61
2021/12/09 11:21:30;;;;;;;4.15;2.20;;;;;;;12.90;55.92;100242.59;5083225;28;20048;-56
2021/12/09 11:24:05;;;;;;;6.00;2.28;;;;;;;12.90;56.13;100232.16;5078857;28;20110;-60
2021/12/09 11:26:57;;;;;;;6.43;2.75;;;;;;;12.94;55.82;100236.38;5073753;28;20032;-60
2021/12/09 11:30:07;;;;;;;6.20;2.30;;;;;;;12.87;55.92;100227.06;5073262;28;20029;-61
2021/12/09 11:35:12;;;;;;;3.90;2.00;;;;;;;12.93;55.97;100226.84;5083346;28;20032;-61
2021/12/09 11:37:46;;;;;;;;;;;;;;;13.03;55.79;100227.38;5082753;28;20021;-60